Time;durP1;ratioP1;P1;durP2;ratioP2;P2;SDS_P1;SDS_P2;PMS_P1;PMS_P2;Temp;Humidity;BMP_temperature;BMP_pressure;BME280_temperature;BME280_humidity;BME280_pressure;Samples;Min_cycle;Max_cycle;Signal;HPM_P1;HPM_P2
2024/04/05 00:00:09;;;;;;;10.52;2.70;;;;;;;8.26;100.00;100178.63;4988202;28;20928;-85
2024/04/05 00:02:41;;;;;;;11.25;2.88;;;;;;;8.19;100.00;100181.66;4989896;28;21328;-83
2024/04/05 00:05:10;;;;;;;11.80;2.80;;;;;;;8.24;100.00;100186.25;4989744;28;20426;-84
2024/04/05 00:07:39;;;;;;;10.50;2.90;;;;;;;8.07;100.00;100184.66;4989849;28;20446;-85
2024/04/05 00:10:07;;;;;;;9.02;2.92;;;;;;;8.05;100.00;100186.84;4991187;28;20884;-85
2024/04/05 00:12:35;;;;;;;10.63;3.10;;;;;;;8.00;100.00;100184.16;4991052;28;20428;-84
2024/04/05 00:15:03;;;;;;;8.90;3.10;;;;;;;7.95;100.00;100181.44;4990340;28;20425;-85
2024/04/05 00:17:30;;;;;;;13.45;3.30;;;;;;;7.89;100.00;100180.66;4991325;28;20448;-83
2024/04/05 00:19:57;;;;;;;11.90;3.30;;;;;;;7.89;100.00;100194.19;4990403;28;20432;-85
2024/04/05 00:22:24;;;;;;;11.90;3.92;;;;;;;7.93;100.00;100184.44;4990869;28;20428;-85
2024/04/05 00:24:55;;;;;;;12.13;3.92;;;;;;;7.91;100.00;100196.63;4990422;28;20471;-85
2024/04/05 00:27:22;;;;;;;14.73;4.28;;;;;;;8.00;100.00;100197.69;4991304;28;20420;-85
2024/04/05 00:29:49;;;;;;;12.85;4.30;;;;;;;8.02;100.00;100197.41;4994335;28;20427;-85
2024/04/05 00:32:17;;;;;;;17.17;4.30;;;;;;;8.11;100.00;100196.59;4994390;28;20428;-85
2024/04/05 00:34:43;;;;;;;10.13;3.83;;;;;;;8.14;100.00;100187.91;4992490;28;20428;-85
2024/04/05 00:37:11;;;;;;;11.15;3.70;;;;;;;8.12;100.00;100186.53;4994100;28;20876;-84
2024/04/05 00:39:37;;;;;;;16.67;4.40;;;;;;;8.11;100.00;100203.91;4989817;28;20872;-85
2024/04/05 00:42:06;;;;;;;13.05;3.50;;;;;;;8.09;100.00;100192.53;4996078;28;20432;-84
2024/04/05 00:44:33;;;;;;;16.75;3.28;;;;;;;8.12;100.00;100190.09;4991864;28;20441;-83
2024/04/05 00:47:02;;;;;;;12.20;3.22;;;;;;;8.17;100.00;100197.38;4992127;28;20432;-84
2024/04/05 00:49:29;;;;;;;17.77;3.58;;;;;;;8.18;100.00;100194.38;4990077;28;20434;-84
2024/04/05 00:51:57;;;;;;;11.13;3.28;;;;;;;8.03;100.00;100199.84;4994135;28;20420;-85
2024/04/05 00:54:24;;;;;;;12.03;2.83;;;;;;;7.96;100.00;100197.44;4991767;28;20426;-85
2024/04/05 00:56:53;;;;;;;9.25;2.80;;;;;;;7.94;100.00;100206.91;4991707;28;20422;-85
2024/04/05 00:59:21;;;;;;;13.18;3.30;;;;;;;7.82;100.00;100199.88;4990618;28;20453;-84
2024/04/05 01:01:48;;;;;;;16.25;3.40;;;;;;;7.76;100.00;100197.44;4989831;28;20430;-85
2024/04/05 01:04:15;;;;;;;16.55;3.35;;;;;;;7.83;100.00;100196.09;4993866;28;20508;-84
2024/04/05 01:06:43;;;;;;;13.88;3.30;;;;;;;7.85;100.00;100200.44;4990449;28;20807;-85
2024/04/05 01:09:11;;;;;;;14.73;3.22;;;;;;;7.94;100.00;100204.19;4975418;28;20766;-83
2024/04/05 01:11:39;;;;;;;12.68;3.20;;;;;;;8.15;100.00;100205.78;4993120;28;20424;-84
2024/04/05 01:14:05;;;;;;;16.83;3.42;;;;;;;8.15;100.00;100196.84;4990114;28;20901;-85
2024/04/05 01:16:34;;;;;;;12.60;2.95;;;;;;;8.21;100.00;100195.75;4991930;28;20424;-85
2024/04/05 01:19:02;;;;;;;15.40;3.17;;;;;;;8.32;100.00;100205.47;4990736;28;20437;-83
2024/04/05 01:21:30;;;;;;;13.52;3.30;;;;;;;8.30;100.00;100202.22;4981994;28;20434;-85
2024/04/05 01:23:58;;;;;;;17.25;3.03;;;;;;;8.35;100.00;100206.81;5009290;28;20425;-85
2024/04/05 01:26:27;;;;;;;12.10;2.75;;;;;;;8.32;100.00;100204.66;4993459;28;20416;-84
2024/04/05 01:28:53;;;;;;;17.35;3.10;;;;;;;8.21;100.00;100208.50;4991405;28;20805;-85
2024/04/05 01:31:21;;;;;;;14.57;2.80;;;;;;;8.08;100.00;100210.69;4975971;28;20520;-84
2024/04/05 01:33:47;;;;;;;12.13;3.08;;;;;;;8.02;100.00;100217.19;4990472;28;20813;-85
2024/04/05 01:36:15;;;;;;;13.02;2.80;;;;;;;8.12;100.00;100224.47;4991952;28;20766;-84
2024/04/05 01:38:42;;;;;;;16.20;3.28;;;;;;;8.18;100.00;100213.34;4990810;28;20438;-85
2024/04/05 01:41:11;;;;;;;14.35;3.15;;;;;;;8.24;100.00;100208.72;4990380;28;20758;-85
2024/04/05 01:43:38;;;;;;;19.17;2.90;;;;;;;8.25;100.00;100209.56;4986112;28;20427;-85
2024/04/05 01:46:05;;;;;;;18.77;2.92;;;;;;;8.32;100.00;100220.94;4986996;28;20781;-84
2024/04/05 01:48:32;;;;;;;17.63;3.40;;;;;;;8.34;100.00;100208.72;4990788;28;20777;-85
2024/04/05 01:50:59;;;;;;;15.73;3.05;;;;;;;8.39;100.00;100209.78;4975973;28;20795;-85
2024/04/05 01:53:25;;;;;;;11.50;2.97;;;;;;;8.38;100.00;100208.97;4991445;28;20900;-84
2024/04/05 01:55:53;;;;;;;22.60;3.08;;;;;;;8.48;100.00;100213.59;4992134;28;20425;-84
2024/04/05 01:58:22;;;;;;;21.35;3.33;;;;;;;8.48;100.00;100210.88;4988678;28;21132;-85
2024/04/05 02:00:50;;;;;;;25.67;3.35;;;;;;;8.50;100.00;100219.53;5001071;28;20433;-85
2024/04/05 02:03:17;;;;;;;17.42;2.90;;;;;;;8.61;100.00;100225.72;4990692;28;20767;-84
2024/04/05 02:05:44;;;;;;;14.95;3.35;;;;;;;8.53;100.00;100224.41;4990862;28;20425;-85
2024/04/05 02:08:10;;;;;;;16.02;2.95;;;;;;;8.51;100.00;100221.16;4989114;28;20436;-86
2024/04/05 02:10:38;;;;;;;19.65;2.97;;;;;;;8.57;100.00;100216.53;4991986;28;20425;-85
2024/04/05 02:13:04;;;;;;;14.45;2.83;;;;;;;8.50;100.00;100214.91;4991336;28;20421;-84
2024/04/05 02:15:33;;;;;;;22.87;3.23;;;;;;;8.50;100.00;100214.09;4989812;28;20432;-85
2024/04/05 02:18:00;;;;;;;16.23;3.08;;;;;;;8.51;100.00;100218.44;4984104;28;20427;-85
2024/04/05 02:20:27;;;;;;;18.80;2.97;;;;;;;8.59;100.00;100204.31;4991795;28;20420;-84
2024/04/05 02:22:54;;;;;;;19.20;3.00;;;;;;;8.51;100.00;100199.47;4987673;28;20437;-84
2024/04/05 02:25:22;;;;;;;16.90;3.05;;;;;;;8.40;100.00;100206.78;4991553;28;20801;-84
2024/04/05 02:27:48;;;;;;;16.67;3.28;;;;;;;8.32;100.00;100202.75;4990119;28;20427;-85
2024/04/05 02:30:16;;;;;;;18.40;3.00;;;;;;;8.31;100.00;100203.03;4991537;28;20518;-85
2024/04/05 02:32:44;;;;;;;19.70;3.20;;;;;;;8.24;100.00;100202.50;4981257;28;20435;-84
2024/04/05 02:35:11;;;;;;;18.00;3.10;;;;;;;8.19;100.00;100206.06;4990977;28;21257;-85
2024/04/05 02:37:38;;;;;;;19.05;2.85;;;;;;;8.24;100.00;100216.06;4983295;28;20436;-85
2024/04/05 02:40:07;;;;;;;25.45;3.15;;;;;;;8.23;100.00;100212.56;4990736;28;20435;-85
2024/04/05 02:42:34;;;;;;;23.55;3.53;;;;;;;8.24;100.00;100218.78;4987827;28;20429;-85
2024/04/05 02:45:02;;;;;;;19.63;3.42;;;;;;;8.33;100.00;100215.22;4989929;28;20452;-86
2024/04/05 02:47:29;;;;;;;20.30;3.20;;;;;;;8.38;100.00;100214.38;4988774;28;20428;-83
2024/04/05 02:49:58;;;;;;;25.35;3.10;;;;;;;8.40;100.00;100209.50;4982356;28;20430;-85
2024/04/05 02:52:24;;;;;;;21.15;3.40;;;;;;;8.45;100.00;100212.25;4990492;28;20451;-85
2024/04/05 02:54:51;;;;;;;22.23;3.05;;;;;;;8.53;100.00;100212.75;4990943;28;20777;-85
2024/04/05 02:57:18;;;;;;;20.42;3.13;;;;;;;8.38;100.00;100214.38;4991334;28;20917;-85
2024/04/05 02:59:45;;;;;;;18.33;3.40;;;;;;;8.31;100.00;100213.88;4985855;28;20444;-85
2024/04/05 03:02:12;;;;;;;16.00;2.70;;;;;;;8.16;100.00;100215.56;4988878;28;20423;-83
2024/04/05 03:04:39;;;;;;;20.10;3.03;;;;;;;8.21;100.00;100222.03;4992276;28;20428;-85
2024/04/05 03:07:07;;;;;;;24.85;4.13;;;;;;;8.26;100.00;100219.31;4988545;28;20449;-85
2024/04/05 03:09:36;;;;;;;18.87;3.23;;;;;;;8.32;100.00;100218.22;4991602;28;20518;-85
2024/04/05 03:12:03;;;;;;;19.88;3.55;;;;;;;8.28;100.00;100220.66;4983650;28;20790;-84
2024/04/05 03:14:30;;;;;;;21.25;3.58;;;;;;;8.24;100.00;100227.72;4989204;28;20430;-85
2024/04/05 03:16:57;;;;;;;21.17;3.10;;;;;;;8.20;100.00;100232.06;5006625;28;20433;-86
2024/04/05 03:19:24;;;;;;;23.17;3.83;;;;;;;8.25;100.00;100232.06;4990959;28;20425;-85
2024/04/05 03:21:51;;;;;;;18.13;2.80;;;;;;;8.31;100.00;100233.69;4989321;28;20437;-85
2024/04/05 03:24:20;;;;;;;32.78;4.10;;;;;;;8.24;100.00;100235.03;4990518;28;20421;-85
2024/04/05 03:26:46;;;;;;;28.50;3.85;;;;;;;8.07;100.00;100240.78;4990798;28;20428;-86
2024/04/05 03:29:15;;;;;;;28.40;3.75;;;;;;;8.26;100.00;100238.28;4990663;28;20933;-85
2024/04/05 03:31:41;;;;;;;21.13;3.50;;;;;;;8.24;100.00;100240.47;4990011;28;20436;-84
2024/04/05 03:34:09;;;;;;;22.27;3.97;;;;;;;8.28;100.00;100239.63;4990529;28;20436;-84
2024/04/05 03:36:35;;;;;;;28.65;4.03;;;;;;;8.32;100.00;100248.03;4970344;28;20791;-83
2024/04/05 03:39:03;;;;;;;24.63;3.80;;;;;;;8.36;100.00;100248.31;4985747;28;20432;-85
2024/04/05 03:41:31;;;;;;;27.88;3.50;;;;;;;8.49;100.00;100248.56;4986990;28;20429;-84
2024/04/05 03:43:59;;;;;;;25.70;3.60;;;;;;;8.46;100.00;100245.59;5002174;28;20436;-85
2024/04/05 03:46:25;;;;;;;26.27;3.80;;;;;;;8.44;100.00;100245.84;4968669;28;20932;-84
2024/04/05 03:48:53;;;;;;;28.85;4.03;;;;;;;8.51;100.00;100237.44;4989817;28;20790;-85
2024/04/05 03:51:20;;;;;;;19.25;3.38;;;;;;;8.54;100.00;100231.44;4989050;28;20432;-83
2024/04/05 03:53:47;;;;;;;23.13;3.65;;;;;;;8.55;100.00;100238.50;4987975;28;20454;-84
2024/04/05 03:56:14;;;;;;;24.05;3.78;;;;;;;8.51;100.00;100243.66;4987788;28;20435;-86
2024/04/05 03:58:43;;;;;;;25.25;3.78;;;;;;;8.60;100.00;100240.38;4989672;28;20813;-83
2024/04/05 04:01:09;;;;;;;23.52;3.60;;;;;;;8.57;100.00;100246.38;4988654;28;20931;-86
2024/04/05 04:03:36;;;;;;;26.77;4.03;;;;;;;8.58;100.00;100248.00;4993805;28;20893;-86
2024/04/05 04:06:04;;;;;;;22.70;3.10;;;;;;;8.57;100.00;100249.06;4975945;28;20526;-85
2024/04/05 04:08:32;;;;;;;28.08;3.25;;;;;;;8.40;100.00;100247.47;4986855;28;21171;-84
2024/04/05 04:10:58;;;;;;;26.00;4.07;;;;;;;8.30;100.00;100244.78;4994256;28;20444;-84
2024/04/05 04:13:26;;;;;;;29.10;3.60;;;;;;;8.37;100.00;100252.63;4992668;28;20533;-86
2024/04/05 04:15:55;;;;;;;22.80;3.88;;;;;;;8.23;100.00;100258.63;4989239;28;20418;-85
2024/04/05 04:18:23;;;;;;;22.20;3.45;;;;;;;8.30;100.00;100261.88;4993175;28;20463;-85
2024/04/05 04:20:50;;;;;;;23.77;3.20;;;;;;;8.21;100.00;100257.28;4995083;28;20428;-85
2024/04/05 04:23:17;;;;;;;24.98;4.05;;;;;;;8.21;100.00;100268.94;4992877;28;20864;-84
2024/04/05 04:25:45;;;;;;;23.00;3.35;;;;;;;8.21;100.00;100260.00;4994520;28;20766;-85
2024/04/05 04:28:13;;;;;;;27.30;3.78;;;;;;;8.15;100.00;100262.72;4992548;28;20436;-83
2024/04/05 04:30:39;;;;;;;22.73;3.40;;;;;;;8.03;100.00;100262.19;4992054;28;20437;-84
2024/04/05 04:33:10;;;;;;;29.98;3.90;;;;;;;8.08;100.00;100267.59;4994304;28;20424;-84
2024/04/05 04:35:37;;;;;;;29.90;4.07;;;;;;;8.11;100.00;100269.75;4993095;28;20786;-83
2024/04/05 04:38:05;;;;;;;28.03;3.83;;;;;;;8.12;100.00;100267.84;4977659;28;20471;-84
2024/04/05 04:40:32;;;;;;;25.27;4.05;;;;;;;8.03;100.00;100278.44;4994005;28;20432;-84
2024/04/05 04:43:00;;;;;;;34.63;4.43;;;;;;;8.03;100.00;100273.03;4992745;28;20434;-84
2024/04/05 04:45:26;;;;;;;25.83;4.88;;;;;;;8.10;100.00;100275.47;4993393;28;20891;-85
2024/04/05 04:47:54;;;;;;;23.70;3.73;;;;;;;8.03;100.00;100272.22;4992886;28;20526;-84
2024/04/05 04:50:22;;;;;;;26.70;3.95;;;;;;;8.10;100.00;100284.38;4993122;28;20435;-84
2024/04/05 04:52:49;;;;;;;25.27;3.70;;;;;;;8.07;100.00;100292.28;4993649;28;20424;-84
2024/04/05 04:55:16;;;;;;;27.98;3.85;;;;;;;7.96;100.00;100288.75;4992695;28;20433;-84
2024/04/05 04:57:43;;;;;;;27.50;3.87;;;;;;;8.08;100.00;100289.28;4994249;28;20436;-84
2024/04/05 05:00:11;;;;;;;23.05;3.55;;;;;;;8.12;100.00;100294.97;4976842;28;20445;-84
2024/04/05 05:02:42;;;;;;;29.52;4.25;;;;;;;8.06;100.00;100293.34;5011276;28;20432;-84
2024/04/05 05:05:11;;;;;;;22.73;3.72;;;;;;;8.00;100.00;100290.63;4993780;28;20917;-84
2024/04/05 05:07:39;;;;;;;21.47;4.43;;;;;;;8.02;100.00;100297.69;4993394;28;20428;-84
2024/04/05 05:10:09;;;;;;;25.40;3.75;;;;;;;8.08;100.00;100297.41;4977991;28;20443;-84
2024/04/05 05:12:36;;;;;;;23.92;3.75;;;;;;;8.08;100.00;100302.84;4987200;28;21897;-84
2024/04/05 05:15:04;;;;;;;21.33;3.63;;;;;;;8.12;100.00;100300.38;4992626;28;20813;-84
2024/04/05 05:17:30;;;;;;;24.38;4.38;;;;;;;8.21;100.00;100298.75;4993881;28;20405;-85
2024/04/05 05:19:59;;;;;;;19.95;3.50;;;;;;;8.21;100.00;100295.22;4976393;28;20421;-84
2024/04/05 05:22:25;;;;;;;24.73;4.15;;;;;;;8.21;100.00;100289.81;4993901;28;20425;-84
2024/04/05 05:24:54;;;;;;;21.65;3.40;;;;;;;8.21;100.00;100293.31;4992260;28;20421;-84
2024/04/05 05:27:20;;;;;;;22.75;4.10;;;;;;;8.27;100.00;100304.97;4987688;28;20452;-85
2024/04/05 05:29:48;;;;;;;22.65;4.20;;;;;;;8.31;100.00;100306.88;4992640;28;20477;-84
2024/04/05 05:32:14;;;;;;;24.05;3.53;;;;;;;8.34;100.00;100305.50;4985830;28;20437;-84
2024/04/05 05:34:42;;;;;;;25.60;4.32;;;;;;;8.31;100.00;100309.59;4990015;28;20444;-84
2024/04/05 05:37:08;;;;;;;16.40;3.33;;;;;;;8.36;100.00;100308.75;4974998;28;20797;-84
2024/04/05 05:39:36;;;;;;;20.47;3.57;;;;;;;8.47;100.00;100307.69;4988249;28;20440;-84
2024/04/05 05:42:04;;;;;;;21.90;3.53;;;;;;;8.49;100.00;100312.81;4991306;28;20421;-84
2024/04/05 05:44:32;;;;;;;23.90;3.43;;;;;;;8.52;100.00;100309.59;4985502;28;20436;-84
2024/04/05 05:46:59;;;;;;;20.48;3.13;;;;;;;8.59;100.00;100304.69;4991482;28;20424;-83
2024/04/05 05:49:26;;;;;;;23.35;4.03;;;;;;;8.68;100.00;100311.13;4988029;28;20424;-84
2024/04/05 05:51:53;;;;;;;22.75;4.22;;;;;;;8.76;100.00;100314.38;4988521;28;20425;-83
2024/04/05 05:54:20;;;;;;;16.23;3.17;;;;;;;8.75;100.00;100323.63;4992625;28;20424;-84
2024/04/05 05:56:47;;;;;;;22.70;3.97;;;;;;;8.75;100.00;100323.63;4991246;28;20435;-84
2024/04/05 05:59:16;;;;;;;23.25;3.67;;;;;;;8.75;100.00;100315.47;4990051;28;20913;-84
2024/04/05 06:01:42;;;;;;;20.88;3.65;;;;;;;8.81;100.00;100327.91;4989615;28;20437;-84
2024/04/05 06:04:10;;;;;;;24.70;3.58;;;;;;;8.87;100.00;100328.75;4990938;28;20742;-84
2024/04/05 06:06:37;;;;;;;24.67;3.83;;;;;;;8.93;100.00;100330.34;4991223;28;20423;-84
2024/04/05 06:09:07;;;;;;;25.98;4.10;;;;;;;8.94;100.00;100343.63;4991411;28;20432;-84
2024/04/05 06:11:33;;;;;;;20.23;3.53;;;;;;;9.03;100.00;100343.84;4984510;28;20792;-84
2024/04/05 06:14:01;;;;;;;21.73;3.83;;;;;;;9.06;100.00;100343.31;4988278;28;20793;-83
2024/04/05 06:16:29;;;;;;;23.87;4.13;;;;;;;9.14;100.00;100336.47;4975137;28;20439;-83
2024/04/05 06:18:56;;;;;;;27.25;3.63;;;;;;;9.30;100.00;100338.03;4988796;28;20457;-84
2024/04/05 06:21:23;;;;;;;22.90;3.55;;;;;;;9.24;100.00;100350.03;4990718;28;20793;-85
2024/04/05 06:23:50;;;;;;;28.98;3.90;;;;;;;9.27;100.00;100351.38;4989354;28;20434;-85
2024/04/05 06:26:17;;;;;;;26.25;3.47;;;;;;;9.23;100.00;100345.69;4993287;28;20436;-84
2024/04/05 06:28:45;;;;;;;19.02;3.13;;;;;;;9.29;100.00;100357.31;4974070;28;20435;-84
2024/04/05 06:31:11;;;;;;;21.08;3.83;;;;;;;9.31;100.00;100355.16;5002293;28;20827;-84
2024/04/05 06:33:40;;;;;;;22.38;3.50;;;;;;;9.31;100.00;100355.16;4986202;28;20439;-84
2024/04/05 06:36:09;;;;;;;23.60;3.58;;;;;;;9.38;100.00;100362.97;4987651;28;20447;-83
2024/04/05 06:38:36;;;;;;;23.17;3.78;;;;;;;9.44;100.00;100359.16;4989396;28;20420;-85
2024/04/05 06:41:04;;;;;;;21.20;3.43;;;;;;;9.43;100.00;100363.78;4986297;28;20493;-84
2024/04/05 06:43:32;;;;;;;21.00;3.53;;;;;;;9.46;100.00;100370.53;4990551;28;20416;-83
2024/04/05 06:46:00;;;;;;;27.60;3.58;;;;;;;9.49;100.00;100373.50;4988672;28;20434;-83
2024/04/05 06:48:27;;;;;;;22.27;3.80;;;;;;;9.59;100.00;100377.28;4987927;28;20428;-83
2024/04/05 06:50:56;;;;;;;27.90;4.13;;;;;;;9.70;100.00;100371.47;4985500;28;20434;-85
2024/04/05 06:53:24;;;;;;;22.63;4.43;;;;;;;9.77;100.00;100368.44;4983407;28;20936;-83
2024/04/05 06:55:51;;;;;;;22.60;4.63;;;;;;;9.96;100.00;100374.03;4981779;28;20456;-83
2024/04/05 06:58:20;;;;;;;24.25;4.60;;;;;;;10.06;100.00;100362.28;4999770;28;20440;-85
2024/04/05 07:00:46;;;;;;;22.60;3.70;;;;;;;10.15;100.00;100374.16;4991404;28;20432;-84
2024/04/05 07:03:14;;;;;;;29.15;4.65;;;;;;;10.13;100.00;100368.19;4990101;28;20440;-82
2024/04/05 07:05:41;;;;;;;26.00;3.78;;;;;;;10.23;100.00;100374.66;4987608;28;20420;-82
2024/04/05 07:08:11;;;;;;;24.08;3.58;;;;;;;10.21;100.00;100369.50;4989154;28;20432;-83
2024/04/05 07:10:37;;;;;;;28.67;3.80;;;;;;;10.23;100.00;100369.22;4954734;28;20444;-85
2024/04/05 07:13:05;;;;;;;22.87;4.03;;;;;;;10.22;100.00;100382.00;4950610;28;20416;-83
2024/04/05 07:15:32;;;;;;;20.05;3.58;;;;;;;10.27;100.00;100365.63;4959809;28;20442;-83
2024/04/05 07:18:00;;;;;;;20.40;3.40;;;;;;;10.30;100.00;100373.22;4956028;28;20428;-83
2024/04/05 07:20:26;;;;;;;21.05;3.78;;;;;;;10.29;100.00;100379.75;4969025;28;20429;-84
2024/04/05 07:22:55;;;;;;;24.73;3.90;;;;;;;10.23;100.00;100377.38;4957438;28;20459;-84
2024/04/05 07:25:23;;;;;;;23.98;3.80;;;;;;;10.24;100.00;100387.16;4970426;28;20428;-82
2024/04/05 07:27:53;;;;;;;19.08;3.25;;;;;;;10.13;100.00;100378.25;4960649;28;20430;-83
2024/04/05 07:30:21;;;;;;;17.58;3.45;;;;;;;10.25;100.00;100386.88;4970928;28;20667;-82
2024/04/05 07:32:50;;;;;;;22.42;3.50;;;;;;;10.40;100.00;100382.41;4955697;28;20448;-83
2024/04/05 07:35:17;;;;;;;24.23;3.80;;;;;;;10.43;100.00;100385.38;4952149;28;20426;-82
2024/04/05 07:37:47;;;;;;;20.92;3.38;;;;;;;10.55;100.00;100385.00;4959575;28;20439;-83
2024/04/05 07:40:18;;;;;;;21.67;3.63;;;;;;;10.70;100.00;100382.13;4953208;28;20426;-82
2024/04/05 07:42:50;;;;;;;16.45;3.42;;;;;;;10.81;100.00;100377.41;4951092;28;20422;-83
2024/04/05 07:45:17;;;;;;;19.20;4.05;;;;;;;10.91;100.00;100381.91;4963740;28;20436;-84
2024/04/05 07:47:47;;;;;;;17.02;3.50;;;;;;;10.99;100.00;100375.00;4959209;28;20430;-82
2024/04/05 07:50:14;;;;;;;19.55;3.80;;;;;;;11.15;100.00;100392.78;4961050;28;21075;-82
2024/04/05 07:52:43;;;;;;;16.60;3.43;;;;;;;11.29;100.00;100386.66;4962767;28;20816;-82
2024/04/05 07:55:09;;;;;;;17.00;3.25;;;;;;;11.21;100.00;100391.66;4982654;28;20439;-85
2024/04/05 07:57:38;;;;;;;26.00;3.95;;;;;;;11.08;100.00;100391.53;4969873;28;20432;-82
2024/04/05 08:00:13;;;;;;;20.00;4.00;;;;;;;10.95;100.00;100393.84;4949957;28;20449;-84
2024/04/05 08:02:45;;;;;;;24.35;4.22;;;;;;;10.72;100.00;100396.25;4954302;28;20437;-82
2024/04/05 08:05:12;;;;;;;16.48;3.35;;;;;;;10.66;100.00;100391.16;4951651;28;20432;-84
2024/04/05 08:07:39;;;;;;;17.15;3.28;;;;;;;10.66;100.00;100404.75;4961882;28;20440;-84
2024/04/05 08:10:07;;;;;;;20.88;4.18;;;;;;;10.65;100.00;100395.78;4949008;28;20418;-82
2024/04/05 08:12:35;;;;;;;19.75;3.33;;;;;;;10.67;100.00;100395.50;4964690;28;21731;-85
2024/04/05 08:15:01;;;;;;;21.67;3.75;;;;;;;10.68;100.00;100395.19;4977069;28;20425;-82
2024/04/05 08:17:30;;;;;;;20.52;3.78;;;;;;;10.71;100.00;100391.91;4982251;28;21119;-83
2024/04/05 08:19:57;;;;;;;19.33;3.85;;;;;;;10.89;100.00;100386.81;4982127;28;20434;-82
2024/04/05 08:22:24;;;;;;;24.75;4.18;;;;;;;10.99;100.00;100385.91;4968438;28;20454;-84
2024/04/05 08:24:51;;;;;;;18.67;3.80;;;;;;;11.09;100.00;100374.91;4985643;28;20960;-82
2024/04/05 08:27:18;;;;;;;21.25;3.50;;;;;;;11.24;100.00;100371.16;4982382;28;20437;-82
2024/04/05 08:29:45;;;;;;;22.35;4.05;;;;;;;11.20;100.00;100378.31;4963150;28;20403;-84
2024/04/05 08:32:13;;;;;;;18.25;4.03;;;;;;;11.18;100.00;100367.69;4960022;28;20435;-84
2024/04/05 08:34:42;;;;;;;16.63;3.67;;;;;;;11.32;100.00;100378.69;4961364;28;20485;-83
2024/04/05 08:37:10;;;;;;;19.58;3.58;;;;;;;11.39;100.00;100375.59;4960626;28;20435;-82
2024/04/05 08:39:37;;;;;;;18.55;4.18;;;;;;;11.54;100.00;100369.94;4978358;28;21362;-82
2024/04/05 08:42:11;;;;;;;23.48;4.53;;;;;;;11.55;100.00;100376.22;4967247;28;20442;-84
2024/04/05 08:44:39;;;;;;;16.85;3.42;;;;;;;11.58;100.00;100367.44;4963879;28;20438;-82
2024/04/05 08:47:08;;;;;;;21.17;3.90;;;;;;;11.62;100.00;100357.59;4985996;28;20431;-83
2024/04/05 08:49:35;;;;;;;23.45;3.83;;;;;;;11.61;100.00;100350.50;4985480;28;20435;-83
2024/04/05 08:52:05;;;;;;;20.58;3.70;;;;;;;11.52;100.00;100325.84;4967817;28;21376;-84
2024/04/05 08:54:32;;;;;;;19.27;3.73;;;;;;;11.67;100.00;100332.16;4978775;28;20453;-83
2024/04/05 08:57:01;;;;;;;20.88;4.07;;;;;;;11.74;100.00;100327.97;4963697;28;20426;-84
2024/04/05 08:59:28;;;;;;;18.10;3.40;;;;;;;11.77;100.00;100321.09;4980069;28;20426;-82
2024/04/05 09:01:59;;;;;;;20.85;4.03;;;;;;;11.81;100.00;100327.59;4973838;28;21399;-82
2024/04/05 09:04:26;;;;;;;21.70;3.92;;;;;;;11.84;100.00;100327.00;4977013;28;20972;-84
2024/04/05 09:06:53;;;;;;;21.60;3.95;;;;;;;12.10;100.00;100326.63;4977946;28;20469;-82
2024/04/05 09:09:29;;;;;;;17.27;3.77;;;;;;;12.22;100.00;100331.56;5003833;28;21102;-83
2024/04/05 09:12:02;;;;;;;18.83;3.60;;;;;;;12.37;100.00;100322.31;4940878;28;20436;-82
2024/04/05 09:14:29;;;;;;;18.35;4.03;;;;;;;12.66;100.00;100311.13;4971963;28;20425;-84
2024/04/05 09:16:57;;;;;;;15.67;3.60;;;;;;;12.57;100.00;100310.22;4966225;28;20923;-85
2024/04/05 09:19:24;;;;;;;13.57;3.38;;;;;;;12.57;100.00;100319.22;4962550;28;21178;-82
2024/04/05 09:21:51;;;;;;;19.17;4.30;;;;;;;12.58;100.00;100328.19;4963899;28;20444;-84
2024/04/05 09:24:18;;;;;;;15.80;3.30;;;;;;;12.58;100.00;100336.38;4964677;28;20439;-83
2024/04/05 09:26:47;;;;;;;16.13;3.80;;;;;;;12.63;100.00;100330.03;4960724;28;20597;-83
2024/04/05 09:29:13;;;;;;;15.75;3.70;;;;;;;12.67;100.00;100328.31;4973266;28;20425;-84
2024/04/05 09:31:46;;;;;;;14.27;3.10;;;;;;;12.68;100.00;100313.56;4966220;28;20444;-84
2024/04/05 09:34:14;;;;;;;16.25;3.45;;;;;;;12.76;100.00;100319.13;4966427;28;20421;-82
2024/04/05 09:36:42;;;;;;;16.83;2.92;;;;;;;12.97;100.00;100312.44;4964202;28;20436;-85
2024/04/05 09:39:13;;;;;;;21.88;5.88;;;;;;;13.07;100.00;100310.28;4969724;28;20440;-84
2024/04/05 09:41:42;;;;;;;18.83;5.03;;;;;;;13.15;100.00;100310.72;4967425;28;20436;-85
2024/04/05 09:44:11;;;;;;;17.75;5.03;;;;;;;13.26;100.00;100307.44;4964179;28;20432;-85
2024/04/05 09:46:39;;;;;;;17.63;4.07;;;;;;;13.18;100.00;100302.69;4958847;28;20441;-83
2024/04/05 09:49:06;;;;;;;17.98;3.75;;;;;;;13.23;100.00;100291.66;4965243;28;20444;-82
2024/04/05 09:51:42;;;;;;;14.63;3.33;;;;;;;13.20;100.00;100286.81;4953189;28;22390;-83
2024/04/05 09:54:11;;;;;;;19.58;3.97;;;;;;;13.27;100.00;100291.84;4962868;28;20873;-85
2024/04/05 09:56:39;;;;;;;20.73;4.25;;;;;;;13.38;100.00;100284.25;4977511;28;20507;-84
2024/04/05 09:59:10;;;;;;;16.67;3.00;;;;;;;13.54;100.00;100293.72;4971701;28;20437;-84
2024/04/05 10:01:40;;;;;;;16.30;3.83;;;;;;;13.84;100.00;100285.91;4966266;28;20798;-83
2024/04/05 10:04:08;;;;;;;18.17;3.72;;;;;;;13.76;100.00;100286.66;4946391;28;20435;-84
2024/04/05 10:06:38;;;;;;;12.77;3.35;;;;;;;13.74;100.00;100288.88;4964652;28;20447;-83
2024/04/05 10:09:15;;;;;;;13.37;3.20;;;;;;;13.80;100.00;100281.38;4975213;28;20429;-84
2024/04/05 10:11:43;;;;;;;16.27;3.67;;;;;;;13.65;100.00;100283.34;4943309;28;20448;-85
2024/04/05 10:14:10;;;;;;;17.30;3.40;;;;;;;13.66;100.00;100282.25;4967671;28;20429;-83
2024/04/05 10:16:39;;;;;;;12.65;3.30;;;;;;;13.63;100.00;100277.41;4965794;28;20421;-83
2024/04/05 10:19:10;;;;;;;15.10;3.05;;;;;;;13.67;100.00;100275.66;4950653;28;20440;-83
2024/04/05 10:21:37;;;;;;;13.75;2.92;;;;;;;13.69;100.00;100276.16;4968172;28;20419;-84
2024/04/05 10:24:05;;;;;;;15.90;3.15;;;;;;;13.74;100.00;100270.56;4959589;28;20440;-82
2024/04/05 10:26:34;;;;;;;12.48;2.90;;;;;;;13.60;100.00;100280.72;4967048;28;20439;-83
2024/04/05 10:29:04;;;;;;;16.75;2.85;;;;;;;13.77;100.00;100278.13;4967151;28;20437;-85
2024/04/05 10:31:33;;;;;;;15.07;3.27;;;;;;;13.83;100.00;100272.53;4961444;28;20520;-82
2024/04/05 10:34:01;;;;;;;14.43;2.67;;;;;;;13.91;100.00;100266.31;4966252;28;20962;-82
2024/04/05 10:36:29;;;;;;;15.85;2.83;;;;;;;14.11;100.00;100259.50;4966130;28;20420;-82
2024/04/05 10:38:55;;;;;;;12.27;2.90;;;;;;;14.29;100.00;100247.53;4965134;28;20423;-83
2024/04/05 10:41:23;;;;;;;11.85;2.58;;;;;;;14.22;100.00;100235.41;4961410;28;20429;-83
2024/04/05 10:44:00;;;;;;;15.35;3.35;;;;;;;14.42;100.00;100228.59;4964476;28;20437;-82
2024/04/05 10:46:28;;;;;;;17.95;2.97;;;;;;;14.23;100.00;100229.63;4981507;28;20433;-84
2024/04/05 10:48:58;;;;;;;15.43;2.50;;;;;;;14.29;100.00;100220.16;4961151;28;20751;-83
2024/04/05 10:51:27;;;;;;;15.07;2.90;;;;;;;14.46;100.00;100219.41;4952633;28;20433;-83
2024/04/05 10:53:54;;;;;;;15.70;4.50;;;;;;;14.59;100.00;100233.28;4961145;28;20444;-83
2024/04/05 10:56:22;;;;;;;15.95;3.42;;;;;;;14.62;100.00;100238.13;4962577;28;20440;-81
2024/04/05 10:58:49;;;;;;;11.73;2.60;;;;;;;14.73;100.00;100233.19;4960772;28;20840;-84
2024/04/05 11:01:18;;;;;;;14.85;2.67;;;;;;;14.90;100.00;100229.69;4966278;28;20427;-82
2024/04/05 11:03:44;;;;;;;13.65;2.97;;;;;;;14.86;100.00;100231.44;4958281;28;20416;-83
2024/04/05 11:06:12;;;;;;;11.82;2.67;;;;;;;14.82;100.00;100234.03;4969490;28;20440;-82
2024/04/05 11:08:51;;;;;;;12.63;2.53;;;;;;;14.87;100.00;100233.84;4948457;28;20962;-84
2024/04/05 11:11:20;;;;;;;11.33;2.27;;;;;;;14.88;100.00;100210.81;4932468;28;20459;-81
2024/04/05 11:13:46;;;;;;;11.98;2.45;;;;;;;14.75;100.00;100217.28;4958882;28;21001;-82
2024/04/05 11:16:16;;;;;;;12.70;2.75;;;;;;;14.85;100.00;100210.69;4959632;28;20421;-86